sensor_id;sensor_type;location;lat;lon;timestamp;pressure;altitude;pressure_sealevel;temperature;humidity
44127;BME280;29786;50.798;7.302;2023-05-16T00:02:29;99170;;;10.96;100
44127;BME280;29786;50.798;7.302;2023-05-16T00:08:39;99170;;;10.86;100
44127;BME280;29786;50.798;7.302;2023-05-16T00:13:35;99150;;;10.59;100
44127;BME280;29786;50.798;7.302;2023-05-16T00:18:32;99160;;;10.5;100
44127;BME280;29786;50.798;7.302;2023-05-16T00:23:29;99160;;;10.22;100
44127;BME280;29786;50.798;7.302;2023-05-16T00:29:39;99170;;;10.03;100
44127;BME280;29786;50.798;7.302;2023-05-16T00:39:32;99160;;;9.97;100
44127;BME280;29786;50.798;7.302;2023-05-16T00:44:37;99160;;;9.95;100
44127;BME280;29786;50.798;7.302;2023-05-16T00:49:33;99160;;;9.92;100
44127;BME280;29786;50.798;7.302;2023-05-16T01:00:40;99150;;;9.87;100
44127;BME280;29786;50.798;7.302;2023-05-16T01:05:37;99150;;;9.87;100
44127;BME280;29786;50.798;7.302;2023-05-16T01:10:36;99160;;;9.74;100
44127;BME280;29786;50.798;7.302;2023-05-16T01:15:33;99160;;;9.85;100
44127;BME280;29786;50.798;7.302;2023-05-16T01:21:43;99150;;;9.88;100
44127;BME280;29786;50.798;7.302;2023-05-16T01:26:37;99150;;;9.93;100
44127;BME280;29786;50.798;7.302;2023-05-16T01:31:34;99150;;;9.87;100
44127;BME280;29786;50.798;7.302;2023-05-16T01:36:40;99150;;;9.87;100
44127;BME280;29786;50.798;7.302;2023-05-16T01:42:42;99160;;;9.85;100
44127;BME280;29786;50.798;7.302;2023-05-16T01:47:39;99150;;;9.81;100
44127;BME280;29786;50.798;7.302;2023-05-16T01:52:39;99160;;;9.82;100
44127;BME280;29786;50.798;7.302;2023-05-16T01:57:31;99160;;;9.78;100
44127;BME280;29786;50.798;7.302;2023-05-16T02:03:41;99180;;;9.76;100
44127;BME280;29786;50.798;7.302;2023-05-16T02:08:38;99170;;;9.68;100
44127;BME280;29786;50.798;7.302;2023-05-16T02:13:34;99180;;;9.67;100
44127;BME280;29786;50.798;7.302;2023-05-16T02:18:35;99190;;;9.59;100
44127;BME280;29786;50.798;7.302;2023-05-16T02:24:42;99190;;;9.47;100
44127;BME280;29786;50.798;7.302;2023-05-16T02:29:38;99200;;;9.46;100
44127;BME280;29786;50.798;7.302;2023-05-16T02:34:35;99210;;;9.41;100
44127;BME280;29786;50.798;7.302;2023-05-16T02:39:31;99220;;;9.49;100
44127;BME280;29786;50.798;7.302;2023-05-16T02:45:42;99230;;;9.35;100
44127;BME280;29786;50.798;7.302;2023-05-16T02:50:38;99230;;;9.33;100
44127;BME280;29786;50.798;7.302;2023-05-16T02:55:35;99210;;;9.14;100
44127;BME280;29786;50.798;7.302;2023-05-16T03:00:31;99240;;;9.12;100
44127;BME280;29786;50.798;7.302;2023-05-16T03:06:42;99240;;;9.08;100
44127;BME280;29786;50.798;7.302;2023-05-16T03:11:39;99250;;;8.89;100
44127;BME280;29786;50.798;7.302;2023-05-16T03:16:35;99230;;;8.76;100
44127;BME280;29786;50.798;7.302;2023-05-16T03:21:32;99260;;;8.95;100
44127;BME280;29786;50.798;7.302;2023-05-16T03:26:28;99260;;;8.76;100
44127;BME280;29786;50.798;7.302;2023-05-16T03:32:39;99270;;;8.68;100
44127;BME280;29786;50.798;7.302;2023-05-16T03:37:35;99270;;;8.52;100
44127;BME280;29786;50.798;7.302;2023-05-16T03:42:32;99270;;;8.46;100
44127;BME280;29786;50.798;7.302;2023-05-16T03:48:43;99270;;;8.27;100
44127;BME280;29786;50.798;7.302;2023-05-16T03:53:39;99290;;;8.22;100
44127;BME280;29786;50.798;7.302;2023-05-16T03:58:36;99300;;;8.1;100
44127;BME280;29786;50.798;7.302;2023-05-16T04:03:32;99310;;;8.2;100
44127;BME280;29786;50.798;7.302;2023-05-16T04:08:29;99320;;;8.17;100
44127;BME280;29786;50.798;7.302;2023-05-16T04:14:41;99330;;;8.08;100
44127;BME280;29786;50.798;7.302;2023-05-16T04:19:36;99340;;;8.1;100
44127;BME280;29786;50.798;7.302;2023-05-16T04:24:32;99350;;;8.22;100
44127;BME280;29786;50.798;7.302;2023-05-16T04:29:29;99350;;;8.56;100
44127;BME280;29786;50.798;7.302;2023-05-16T04:35:40;99350;;;8.43;100
44127;BME280;29786;50.798;7.302;2023-05-16T04:40:36;99360;;;8.41;100
44127;BME280;29786;50.798;7.302;2023-05-16T04:45:33;99360;;;8.28;100
44127;BME280;29786;50.798;7.302;2023-05-16T04:50:29;99370;;;8.26;100
44127;BME280;29786;50.798;7.302;2023-05-16T04:56:40;99370;;;8.14;100
44127;BME280;29786;50.798;7.302;2023-05-16T05:01:36;99390;;;8.09;100
44127;BME280;29786;50.798;7.302;2023-05-16T05:06:33;99390;;;8.21;100
44127;BME280;29786;50.798;7.302;2023-05-16T05:11:30;99400;;;8.22;100
44127;BME280;29786;50.798;7.302;2023-05-16T05:17:40;99400;;;8.37;100
44127;BME280;29786;50.798;7.302;2023-05-16T05:22:37;99410;;;8.45;100
44127;BME280;29786;50.798;7.302;2023-05-16T05:27:33;99410;;;8.39;100
44127;BME280;29786;50.798;7.302;2023-05-16T05:38:41;99420;;;8.02;100
44127;BME280;29786;50.798;7.302;2023-05-16T05:43:37;99430;;;7.9;100
44127;BME280;29786;50.798;7.302;2023-05-16T05:48:34;99440;;;8.09;100
44127;BME280;29786;50.798;7.302;2023-05-16T05:53:30;99440;;;7.93;100
44127;BME280;29786;50.798;7.302;2023-05-16T05:59:41;99450;;;8.18;100
44127;BME280;29786;50.798;7.302;2023-05-16T06:04:37;99460;;;8.06;100
44127;BME280;29786;50.798;7.302;2023-05-16T06:09:34;99460;;;8.31;100
44127;BME280;29786;50.798;7.302;2023-05-16T06:14:30;99470;;;8.68;100
44127;BME280;29786;50.798;7.302;2023-05-16T06:20:41;99480;;;8.32;100
44127;BME280;29786;50.798;7.302;2023-05-16T06:25:38;99490;;;8.31;100
44127;BME280;29786;50.798;7.302;2023-05-16T06:30:34;99500;;;8.39;100
44127;BME280;29786;50.798;7.302;2023-05-16T06:35:31;99500;;;8.76;100
44127;BME280;29786;50.798;7.302;2023-05-16T06:41:41;99510;;;9.6;100
44127;BME280;29786;50.798;7.302;2023-05-16T06:46:38;99510;;;9.78;100
44127;BME280;29786;50.798;7.302;2023-05-16T06:51:34;99520;;;9;100
44127;BME280;29786;50.798;7.302;2023-05-16T06:56:31;99520;;;7.97;100
44127;BME280;29786;50.798;7.302;2023-05-16T07:02:41;99530;;;8.52;100
44127;BME280;29786;50.798;7.302;2023-05-16T07:07:38;99520;;;9.22;100
44127;BME280;29786;50.798;7.302;2023-05-16T07:12:35;99530;;;9.6;100
44127;BME280;29786;50.798;7.302;2023-05-16T07:17:31;99540;;;10.25;100
44127;BME280;29786;50.798;7.302;2023-05-16T07:22:28;99540;;;9.87;100
44127;BME280;29786;50.798;7.302;2023-05-16T07:28:38;99530;;;9.45;100
44127;BME280;29786;50.798;7.302;2023-05-16T07:33:35;99530;;;9.13;100
44127;BME280;29786;50.798;7.302;2023-05-16T07:38:31;99540;;;9.27;100
44127;BME280;29786;50.798;7.302;2023-05-16T07:44:42;99550;;;10.18;100
44127;BME280;29786;50.798;7.302;2023-05-16T07:49:39;99550;;;10.13;100
44127;BME280;29786;50.798;7.302;2023-05-16T07:54:35;99540;;;9.68;100
44127;BME280;29786;50.798;7.302;2023-05-16T07:59:32;99550;;;11.01;100
44127;BME280;29786;50.798;7.302;2023-05-16T08:04:28;99550;;;11.24;100
44127;BME280;29786;50.798;7.302;2023-05-16T08:10:39;99550;;;10.32;100
44127;BME280;29786;50.798;7.302;2023-05-16T08:15:35;99540;;;9.68;100
44127;BME280;29786;50.798;7.302;2023-05-16T08:20:32;99570;;;9.66;100
44127;BME280;29786;50.798;7.302;2023-05-16T08:26:43;99570;;;9.85;100
44127;BME280;29786;50.798;7.302;2023-05-16T08:31:39;99560;;;11.04;100
44127;BME280;29786;50.798;7.302;2023-05-16T08:36:36;99570;;;10.98;100
44127;BME280;29786;50.798;7.302;2023-05-16T08:41:32;99570;;;11.54;90.11
44127;BME280;29786;50.798;7.302;2023-05-16T08:46:29;99560;;;11.72;83.45
44127;BME280;29786;50.798;7.302;2023-05-16T08:52:39;99550;;;12.85;76.7
44127;BME280;29786;50.798;7.302;2023-05-16T08:57:36;99550;;;12.93;73.18
44127;BME280;29786;50.798;7.302;2023-05-16T09:02:32;99560;;;12.62;68.2
44127;BME280;29786;50.798;7.302;2023-05-16T09:07:29;99550;;;13.24;66.54
44127;BME280;29786;50.798;7.302;2023-05-16T09:13:40;99560;;;11.18;77.54
44127;BME280;29786;50.798;7.302;2023-05-16T09:18:36;99570;;;11.37;79.81
44127;BME280;29786;50.798;7.302;2023-05-16T09:23:33;99560;;;12.79;70.05
44127;BME280;29786;50.798;7.302;2023-05-16T09:28:29;99560;;;13.52;67.04
44127;BME280;29786;50.798;7.302;2023-05-16T09:34:42;99570;;;12.06;72.36
44127;BME280;29786;50.798;7.302;2023-05-16T09:39:38;99570;;;12.54;65.38
44127;BME280;29786;50.798;7.302;2023-05-16T09:44:33;99570;;;12.41;62.79
44127;BME280;29786;50.798;7.302;2023-05-16T09:49:30;99560;;;12.76;59.2
44127;BME280;29786;50.798;7.302;2023-05-16T09:55:40;99560;;;13.2;59.88
44127;BME280;29786;50.798;7.302;2023-05-16T10:00:37;99570;;;13.1;57.45
44127;BME280;29786;50.798;7.302;2023-05-16T10:05:33;99570;;;12.69;59.27
44127;BME280;29786;50.798;7.302;2023-05-16T10:16:41;99560;;;14.06;54.48
44127;BME280;29786;50.798;7.302;2023-05-16T10:21:37;99560;;;14.13;53.5
44127;BME280;29786;50.798;7.302;2023-05-16T10:26:33;99560;;;13.55;57.36
44127;BME280;29786;50.798;7.302;2023-05-16T10:31:30;99560;;;12.47;58.62
44127;BME280;29786;50.798;7.302;2023-05-16T10:37:41;99570;;;12.58;55.85
44127;BME280;29786;50.798;7.302;2023-05-16T10:42:37;99560;;;13.64;55.45
44127;BME280;29786;50.798;7.302;2023-05-16T10:47:34;99560;;;14.85;55.22
44127;BME280;29786;50.798;7.302;2023-05-16T10:52:32;99570;;;14.72;53.3
44127;BME280;29786;50.798;7.302;2023-05-16T10:58:41;99560;;;15.91;51.05
44127;BME280;29786;50.798;7.302;2023-05-16T11:03:38;99560;;;15.19;51.75
44127;BME280;29786;50.798;7.302;2023-05-16T11:08:34;99580;;;13.55;53.75
44127;BME280;29786;50.798;7.302;2023-05-16T11:13:31;99570;;;13.59;53.69
44127;BME280;29786;50.798;7.302;2023-05-16T11:19:43;99570;;;13.87;53.43
44127;BME280;29786;50.798;7.302;2023-05-16T11:24:38;99580;;;13.48;53.5
44127;BME280;29786;50.798;7.302;2023-05-16T11:29:35;99570;;;14.29;53.05
44127;BME280;29786;50.798;7.302;2023-05-16T11:34:31;99570;;;14.79;48.11
44127;BME280;29786;50.798;7.302;2023-05-16T11:40:42;99570;;;13.65;50.86
44127;BME280;29786;50.798;7.302;2023-05-16T11:45:38;99570;;;14.03;49.8
44127;BME280;29786;50.798;7.302;2023-05-16T11:50:35;99570;;;16.12;49.28
44127;BME280;29786;50.798;7.302;2023-05-16T11:55:31;99570;;;15.46;47.42
44127;BME280;29786;50.798;7.302;2023-05-16T12:00:28;99570;;;15.28;47.66
44127;BME280;29786;50.798;7.302;2023-05-16T12:06:39;99560;;;17.26;47.27
44127;BME280;29786;50.798;7.302;2023-05-16T12:11:36;99540;;;15.54;45.16
44127;BME280;29786;50.798;7.302;2023-05-16T12:16:31;99550;;;14.66;48.67
44127;BME280;29786;50.798;7.302;2023-05-16T12:22:42;99560;;;14.95;49.17
44127;BME280;29786;50.798;7.302;2023-05-16T12:27:38;99560;;;13.93;50.02
44127;BME280;29786;50.798;7.302;2023-05-16T12:32:36;99540;;;14.78;49.13
44127;BME280;29786;50.798;7.302;2023-05-16T12:37:32;99550;;;17.64;46.52
44127;BME280;29786;50.798;7.302;2023-05-16T12:43:43;99540;;;18.2;45.1
44127;BME280;29786;50.798;7.302;2023-05-16T12:48:39;99550;;;17.98;44.59
44127;BME280;29786;50.798;7.302;2023-05-16T12:53:39;99540;;;18.19;42.4
44127;BME280;29786;50.798;7.302;2023-05-16T12:58:32;99550;;;18.65;43.05
44127;BME280;29786;50.798;7.302;2023-05-16T13:03:28;99560;;;16.54;44.89
44127;BME280;29786;50.798;7.302;2023-05-16T13:09:39;99550;;;18.45;42.43
44127;BME280;29786;50.798;7.302;2023-05-16T13:19:32;99560;;;18.45;42.87
44127;BME280;29786;50.798;7.302;2023-05-16T13:24:29;99560;;;16.7;45.41
44127;BME280;29786;50.798;7.302;2023-05-16T13:30:39;99570;;;15.51;47.94
44127;BME280;29786;50.798;7.302;2023-05-16T13:35:36;99580;;;15.24;49.39
44127;BME280;29786;50.798;7.302;2023-05-16T13:40:32;99580;;;15.34;49.2
44127;BME280;29786;50.798;7.302;2023-05-16T13:45:29;99580;;;18.45;43.17
44127;BME280;29786;50.798;7.302;2023-05-16T13:51:40;99580;;;16.79;47.69
44127;BME280;29786;50.798;7.302;2023-05-16T13:56:36;99570;;;18.09;45.96
44127;BME280;29786;50.798;7.302;2023-05-16T14:01:33;99580;;;19.91;42.19
44127;BME280;29786;50.798;7.302;2023-05-16T14:06:29;99580;;;18;43.96
44127;BME280;29786;50.798;7.302;2023-05-16T14:12:40;99580;;;18.6;40.42
44127;BME280;29786;50.798;7.302;2023-05-16T14:17:36;99580;;;18.41;39.81
44127;BME280;29786;50.798;7.302;2023-05-16T14:22:33;99570;;;19.6;37
44127;BME280;29786;50.798;7.302;2023-05-16T14:27:29;99550;;;18.82;37.87
44127;BME280;29786;50.798;7.302;2023-05-16T14:33:40;99570;;;18.7;39.18
44127;BME280;29786;50.798;7.302;2023-05-16T14:38:37;99560;;;21.49;37.17
44127;BME280;29786;50.798;7.302;2023-05-16T14:43:33;99570;;;17.35;40.2
44127;BME280;29786;50.798;7.302;2023-05-16T14:48:30;99560;;;15.65;42.91
44127;BME280;29786;50.798;7.302;2023-05-16T14:54:40;99570;;;15.5;43.81
44127;BME280;29786;50.798;7.302;2023-05-16T14:59:37;99550;;;21.06;36.68
44127;BME280;29786;50.798;7.302;2023-05-16T15:04:33;99560;;;17.78;38.81
44127;BME280;29786;50.798;7.302;2023-05-16T15:09:30;99560;;;22.26;34.18
44127;BME280;29786;50.798;7.302;2023-05-16T15:15:41;99560;;;21.73;32.19
44127;BME280;29786;50.798;7.302;2023-05-16T15:20:38;99560;;;22.86;31.37
44127;BME280;29786;50.798;7.302;2023-05-16T15:25:34;99560;;;21.28;32.93
44127;BME280;29786;50.798;7.302;2023-05-16T15:30:30;99570;;;17.41;39.43
44127;BME280;29786;50.798;7.302;2023-05-16T15:36:41;99590;;;15.13;43.73
44127;BME280;29786;50.798;7.302;2023-05-16T15:40:23;99580;;;14.98;44.91
44127;BME280;29786;50.798;7.302;2023-05-16T15:41:38;99580;;;14.88;44.7
44127;BME280;29786;50.798;7.302;2023-05-16T15:46:34;99590;;;14.45;45.08
44127;BME280;29786;50.798;7.302;2023-05-16T15:51:30;99590;;;14.5;47.85
44127;BME280;29786;50.798;7.302;2023-05-16T15:57:41;99610;;;14.62;47.6
44127;BME280;29786;50.798;7.302;2023-05-16T16:02:38;99610;;;13.84;49.16
44127;BME280;29786;50.798;7.302;2023-05-16T16:07:34;99610;;;13.58;49.85
44127;BME280;29786;50.798;7.302;2023-05-16T16:12:31;99610;;;13.52;51.48
44127;BME280;29786;50.798;7.302;2023-05-16T16:18:42;99610;;;13.55;51.32
44127;BME280;29786;50.798;7.302;2023-05-16T16:23:38;99610;;;14.11;50.71
44127;BME280;29786;50.798;7.302;2023-05-16T16:28:34;99620;;;14.05;50.77
44127;BME280;29786;50.798;7.302;2023-05-16T16:33:31;99620;;;13.93;51.05
44127;BME280;29786;50.798;7.302;2023-05-16T16:39:42;99620;;;15.43;48.58
44127;BME280;29786;50.798;7.302;2023-05-16T16:44:39;99630;;;14.87;48.97
44127;BME280;29786;50.798;7.302;2023-05-16T16:49:35;99610;;;14.28;50.56
44127;BME280;29786;50.798;7.302;2023-05-16T16:54:31;99640;;;13.92;51.82
44127;BME280;29786;50.798;7.302;2023-05-16T17:00:42;99640;;;13.4;53.23
44127;BME280;29786;50.798;7.302;2023-05-16T17:05:38;99650;;;13.49;54.46
44127;BME280;29786;50.798;7.302;2023-05-16T17:10:35;99630;;;13.04;55.48
44127;BME280;29786;50.798;7.302;2023-05-16T17:15:32;99650;;;13.35;56.43
44127;BME280;29786;50.798;7.302;2023-05-16T17:20:28;99660;;;15.7;49.07
44127;BME280;29786;50.798;7.302;2023-05-16T17:26:39;99670;;;15.72;49.1
44127;BME280;29786;50.798;7.302;2023-05-16T17:31:35;99650;;;13.16;54.54
44127;BME280;29786;50.798;7.302;2023-05-16T17:36:32;99680;;;12.98;57.75
44127;BME280;29786;50.798;7.302;2023-05-16T17:41:28;99680;;;12.85;57.94
44127;BME280;29786;50.798;7.302;2023-05-16T17:47:39;99690;;;12.57;60.58
44127;BME280;29786;50.798;7.302;2023-05-16T17:57:32;99690;;;12.6;62.82
44127;BME280;29786;50.798;7.302;2023-05-16T18:02:29;99700;;;12.28;65.19
44127;BME280;29786;50.798;7.302;2023-05-16T18:08:39;99700;;;11.93;67.64
44127;BME280;29786;50.798;7.302;2023-05-16T18:13:36;99700;;;11.76;71.1
44127;BME280;29786;50.798;7.302;2023-05-16T18:18:32;99700;;;11.8;74.42
44127;BME280;29786;50.798;7.302;2023-05-16T18:23:29;99710;;;11.69;76.1
44127;BME280;29786;50.798;7.302;2023-05-16T18:29:40;99720;;;11.52;76.3
44127;BME280;29786;50.798;7.302;2023-05-16T18:34:36;99720;;;11.42;78.33
44127;BME280;29786;50.798;7.302;2023-05-16T18:39:33;99720;;;11.27;78.54
44127;BME280;29786;50.798;7.302;2023-05-16T18:44:29;99710;;;11.17;78.17
44127;BME280;29786;50.798;7.302;2023-05-16T18:50:40;99730;;;10.97;80.94
44127;BME280;29786;50.798;7.302;2023-05-16T18:55:36;99730;;;10.92;80.67
44127;BME280;29786;50.798;7.302;2023-05-16T19:00:33;99740;;;10.88;81.04
44127;BME280;29786;50.798;7.302;2023-05-16T19:05:29;99740;;;10.85;81.47
44127;BME280;29786;50.798;7.302;2023-05-16T19:11:40;99750;;;10.85;83.93
44127;BME280;29786;50.798;7.302;2023-05-16T19:16:37;99750;;;10.73;85.7
44127;BME280;29786;50.798;7.302;2023-05-16T19:21:33;99760;;;10.71;87.9
44127;BME280;29786;50.798;7.302;2023-05-16T19:26:30;99770;;;10.63;90.18
44127;BME280;29786;50.798;7.302;2023-05-16T19:32:40;99770;;;10.65;90.75
44127;BME280;29786;50.798;7.302;2023-05-16T19:37:37;99780;;;10.62;92.09
44127;BME280;29786;50.798;7.302;2023-05-16T19:42:33;99770;;;10.52;94.23
44127;BME280;29786;50.798;7.302;2023-05-16T19:47:30;99780;;;10.53;96.25
44127;BME280;29786;50.798;7.302;2023-05-16T19:53:41;99790;;;10.42;97.43
44127;BME280;29786;50.798;7.302;2023-05-16T19:58:37;99790;;;10.5;99.54
44127;BME280;29786;50.798;7.302;2023-05-16T20:03:34;99790;;;10.43;100
44127;BME280;29786;50.798;7.302;2023-05-16T20:08:30;99790;;;10.46;100
44127;BME280;29786;50.798;7.302;2023-05-16T20:14:41;99790;;;10.41;100
44127;BME280;29786;50.798;7.302;2023-05-16T20:19:37;99790;;;10.46;100
44127;BME280;29786;50.798;7.302;2023-05-16T20:24:34;99790;;;10.4;100
44127;BME280;29786;50.798;7.302;2023-05-16T20:29:31;99790;;;10.45;100
44127;BME280;29786;50.798;7.302;2023-05-16T20:35:41;99800;;;10.33;100
44127;BME280;29786;50.798;7.302;2023-05-16T20:40:38;99810;;;10.45;100
44127;BME280;29786;50.798;7.302;2023-05-16T20:45:34;99810;;;10.41;100
44127;BME280;29786;50.798;7.302;2023-05-16T20:50:31;99810;;;10.38;100
44127;BME280;29786;50.798;7.302;2023-05-16T20:56:41;99810;;;10.32;100
44127;BME280;29786;50.798;7.302;2023-05-16T21:01:38;99810;;;10.28;100
44127;BME280;29786;50.798;7.302;2023-05-16T21:06:35;99820;;;10.28;100
44127;BME280;29786;50.798;7.302;2023-05-16T21:11:31;99810;;;10.09;100
44127;BME280;29786;50.798;7.302;2023-05-16T21:17:42;99820;;;9.89;100
44127;BME280;29786;50.798;7.302;2023-05-16T21:21:24;99820;;;9.82;100
44127;BME280;29786;50.798;7.302;2023-05-16T21:22:46;99820;;;9.72;100
44127;BME280;29786;50.798;7.302;2023-05-16T21:32:39;99820;;;9.51;100
44127;BME280;29786;50.798;7.302;2023-05-16T21:37:36;99820;;;9.41;100
44127;BME280;29786;50.798;7.302;2023-05-16T21:42:33;99820;;;9.28;100
44127;BME280;29786;50.798;7.302;2023-05-16T21:47:29;99830;;;9.12;100
44127;BME280;29786;50.798;7.302;2023-05-16T21:53:40;99830;;;9.18;100
44127;BME280;29786;50.798;7.302;2023-05-16T21:58:36;99840;;;9.03;100
44127;BME280;29786;50.798;7.302;2023-05-16T22:03:33;99840;;;9.06;100
44127;BME280;29786;50.798;7.302;2023-05-16T22:08:29;99840;;;8.97;100
44127;BME280;29786;50.798;7.302;2023-05-16T22:14:40;99840;;;8.81;100
44127;BME280;29786;50.798;7.302;2023-05-16T22:19:37;99840;;;8.71;100
44127;BME280;29786;50.798;7.302;2023-05-16T22:24:33;99840;;;8.51;100
44127;BME280;29786;50.798;7.302;2023-05-16T22:29:30;99840;;;8.55;100
44127;BME280;29786;50.798;7.302;2023-05-16T22:35:40;99850;;;8.52;100
44127;BME280;29786;50.798;7.302;2023-05-16T22:40:37;99850;;;8.53;100
44127;BME280;29786;50.798;7.302;2023-05-16T22:45:33;99850;;;8.46;100
44127;BME280;29786;50.798;7.302;2023-05-16T22:56:40;99860;;;8.3;100
44127;BME280;29786;50.798;7.302;2023-05-16T23:01:37;99870;;;8.2;100
44127;BME280;29786;50.798;7.302;2023-05-16T23:06:34;99880;;;8.1;100
44127;BME280;29786;50.798;7.302;2023-05-16T23:11:30;99870;;;8.2;100
44127;BME280;29786;50.798;7.302;2023-05-16T23:17:41;99870;;;8.21;100
44127;BME280;29786;50.798;7.302;2023-05-16T23:22:37;99880;;;8.08;100
44127;BME280;29786;50.798;7.302;2023-05-16T23:27:34;99880;;;7.98;100
44127;BME280;29786;50.798;7.302;2023-05-16T23:32:30;99890;;;8.04;100
44127;BME280;29786;50.798;7.302;2023-05-16T23:33:44;99880;;;8;100
44127;BME280;29786;50.798;7.302;2023-05-16T23:38:41;99890;;;7.82;100
44127;BME280;29786;50.798;7.302;2023-05-16T23:43:38;99890;;;7.77;100
44127;BME280;29786;50.798;7.302;2023-05-16T23:48:34;99900;;;7.77;100
44127;BME280;29786;50.798;7.302;2023-05-16T23:53:31;99900;;;7.59;100
44127;BME280;29786;50.798;7.302;2023-05-16T23:59:41;99900;;;7.58;100
